sensor_id;sensor_type;location;lat;lon;timestamp;temperature;humidity
22450;DHT22;11392;57.390;-2.468;2023-05-10T00:00:37;10.90;99.90
22450;DHT22;11392;57.390;-2.468;2023-05-10T00:03:04;10.90;99.90
22450;DHT22;11392;57.390;-2.468;2023-05-10T00:05:32;10.90;99.90
22450;DHT22;11392;57.390;-2.468;2023-05-10T00:07:59;10.80;99.90
22450;DHT22;11392;57.390;-2.468;2023-05-10T00:10:26;10.80;99.90
22450;DHT22;11392;57.390;-2.468;2023-05-10T00:12:53;10.80;99.90
22450;DHT22;11392;57.390;-2.468;2023-05-10T00:15:20;10.80;99.90
22450;DHT22;11392;57.390;-2.468;2023-05-10T00:17:47;10.80;99.90
22450;DHT22;11392;57.390;-2.468;2023-05-10T00:20:15;10.80;99.90
22450;DHT22;11392;57.390;-2.468;2023-05-10T00:22:42;10.80;99.90
22450;DHT22;11392;57.390;-2.468;2023-05-10T00:25:10;10.80;99.90
22450;DHT22;11392;57.390;-2.468;2023-05-10T00:27:37;10.80;99.90
22450;DHT22;11392;57.390;-2.468;2023-05-10T00:30:04;10.80;99.90
22450;DHT22;11392;57.390;-2.468;2023-05-10T00:32:31;10.70;99.90
22450;DHT22;11392;57.390;-2.468;2023-05-10T00:34:58;10.70;99.90
22450;DHT22;11392;57.390;-2.468;2023-05-10T00:37:25;10.70;99.90
22450;DHT22;11392;57.390;-2.468;2023-05-10T00:39:52;10.80;99.90
22450;DHT22;11392;57.390;-2.468;2023-05-10T00:42:19;10.80;99.90
22450;DHT22;11392;57.390;-2.468;2023-05-10T00:44:47;10.70;99.90
22450;DHT22;11392;57.390;-2.468;2023-05-10T00:47:15;10.60;99.90
22450;DHT22;11392;57.390;-2.468;2023-05-10T00:49:42;10.60;99.90
22450;DHT22;11392;57.390;-2.468;2023-05-10T00:52:10;10.50;99.90
22450;DHT22;11392;57.390;-2.468;2023-05-10T00:54:37;10.60;99.90
22450;DHT22;11392;57.390;-2.468;2023-05-10T00:57:04;10.60;99.90
22450;DHT22;11392;57.390;-2.468;2023-05-10T00:59:31;10.60;99.90
22450;DHT22;11392;57.390;-2.468;2023-05-10T01:01:58;10.60;99.90
22450;DHT22;11392;57.390;-2.468;2023-05-10T01:04:26;10.60;99.90
22450;DHT22;11392;57.390;-2.468;2023-05-10T01:06:53;10.60;99.90
22450;DHT22;11392;57.390;-2.468;2023-05-10T01:09:21;10.60;99.90
22450;DHT22;11392;57.390;-2.468;2023-05-10T01:11:49;10.60;99.90
22450;DHT22;11392;57.390;-2.468;2023-05-10T01:14:18;10.60;99.90
22450;DHT22;11392;57.390;-2.468;2023-05-10T01:16:47;10.60;99.90
22450;DHT22;11392;57.390;-2.468;2023-05-10T01:19:26;10.60;99.90
22450;DHT22;11392;57.390;-2.468;2023-05-10T01:33:15;10.60;99.90
22450;DHT22;11392;57.390;-2.468;2023-05-10T01:47:07;10.50;99.90
22450;DHT22;11392;57.390;-2.468;2023-05-10T01:49:47;10.50;99.90
22450;DHT22;11392;57.390;-2.468;2023-05-10T01:52:18;10.50;99.90
22450;DHT22;11392;57.390;-2.468;2023-05-10T01:55:00;10.50;99.90
22450;DHT22;11392;57.390;-2.468;2023-05-10T01:57:33;10.50;99.90
22450;DHT22;11392;57.390;-2.468;2023-05-10T02:00:04;10.50;99.90
22450;DHT22;11392;57.390;-2.468;2023-05-10T02:02:39;10.40;99.90
22450;DHT22;11392;57.390;-2.468;2023-05-10T02:05:07;10.40;99.90
22450;DHT22;11392;57.390;-2.468;2023-05-10T02:07:36;10.40;99.90
22450;DHT22;11392;57.390;-2.468;2023-05-10T02:10:07;10.40;99.90
22450;DHT22;11392;57.390;-2.468;2023-05-10T02:12:42;10.40;99.90
22450;DHT22;11392;57.390;-2.468;2023-05-10T02:15:11;10.40;99.90
22450;DHT22;11392;57.390;-2.468;2023-05-10T02:17:42;10.30;99.90
22450;DHT22;11392;57.390;-2.468;2023-05-10T02:20:10;10.40;99.90
22450;DHT22;11392;57.390;-2.468;2023-05-10T02:22:39;10.40;99.90
22450;DHT22;11392;57.390;-2.468;2023-05-10T02:25:07;10.40;99.90
22450;DHT22;11392;57.390;-2.468;2023-05-10T02:27:35;10.30;99.90
22450;DHT22;11392;57.390;-2.468;2023-05-10T02:30:04;10.30;99.90
22450;DHT22;11392;57.390;-2.468;2023-05-10T02:32:33;10.20;99.90
22450;DHT22;11392;57.390;-2.468;2023-05-10T02:35:03;10.20;99.90
22450;DHT22;11392;57.390;-2.468;2023-05-10T02:37:30;10.10;99.90
22450;DHT22;11392;57.390;-2.468;2023-05-10T02:39:59;10.00;99.90
22450;DHT22;11392;57.390;-2.468;2023-05-10T02:42:27;10.00;99.90
22450;DHT22;11392;57.390;-2.468;2023-05-10T02:45:10;9.90;99.90
22450;DHT22;11392;57.390;-2.468;2023-05-10T02:47:39;9.80;99.90
22450;DHT22;11392;57.390;-2.468;2023-05-10T02:50:06;9.80;99.90
22450;DHT22;11392;57.390;-2.468;2023-05-10T02:52:46;9.80;99.90
22450;DHT22;11392;57.390;-2.468;2023-05-10T02:55:15;9.80;99.90
22450;DHT22;11392;57.390;-2.468;2023-05-10T02:57:50;9.80;99.90
22450;DHT22;11392;57.390;-2.468;2023-05-10T03:00:18;9.80;99.90
22450;DHT22;11392;57.390;-2.468;2023-05-10T03:02:45;9.80;99.90
22450;DHT22;11392;57.390;-2.468;2023-05-10T03:05:12;9.80;99.90
22450;DHT22;11392;57.390;-2.468;2023-05-10T03:07:39;9.80;99.90
22450;DHT22;11392;57.390;-2.468;2023-05-10T03:10:07;9.90;99.90
22450;DHT22;11392;57.390;-2.468;2023-05-10T03:18:13;10.00;99.90
22450;DHT22;11392;57.390;-2.468;2023-05-10T03:20:43;10.10;99.90
22450;DHT22;11392;57.390;-2.468;2023-05-10T03:23:27;10.10;99.90
22450;DHT22;11392;57.390;-2.468;2023-05-10T03:25:55;10.10;99.90
22450;DHT22;11392;57.390;-2.468;2023-05-10T03:28:25;10.10;99.90
22450;DHT22;11392;57.390;-2.468;2023-05-10T03:30:54;10.10;99.90
22450;DHT22;11392;57.390;-2.468;2023-05-10T03:33:22;10.10;99.90
22450;DHT22;11392;57.390;-2.468;2023-05-10T03:35:49;10.10;99.90
22450;DHT22;11392;57.390;-2.468;2023-05-10T03:38:16;10.10;99.90
22450;DHT22;11392;57.390;-2.468;2023-05-10T03:40:43;10.10;99.90
22450;DHT22;11392;57.390;-2.468;2023-05-10T03:43:10;10.10;99.90
22450;DHT22;11392;57.390;-2.468;2023-05-10T03:45:37;10.10;99.90
22450;DHT22;11392;57.390;-2.468;2023-05-10T03:48:05;10.10;99.90
22450;DHT22;11392;57.390;-2.468;2023-05-10T03:50:32;10.10;99.90
22450;DHT22;11392;57.390;-2.468;2023-05-10T03:52:59;10.00;99.90
22450;DHT22;11392;57.390;-2.468;2023-05-10T03:55:26;10.00;99.90
22450;DHT22;11392;57.390;-2.468;2023-05-10T03:57:53;10.00;99.90
22450;DHT22;11392;57.390;-2.468;2023-05-10T04:00:20;10.00;99.90
22450;DHT22;11392;57.390;-2.468;2023-05-10T04:02:47;9.90;99.90
22450;DHT22;11392;57.390;-2.468;2023-05-10T04:05:15;9.80;99.90
22450;DHT22;11392;57.390;-2.468;2023-05-10T04:07:42;9.80;99.90
22450;DHT22;11392;57.390;-2.468;2023-05-10T04:10:11;9.70;99.90
22450;DHT22;11392;57.390;-2.468;2023-05-10T04:12:38;9.60;99.90
22450;DHT22;11392;57.390;-2.468;2023-05-10T04:15:06;9.70;99.90
22450;DHT22;11392;57.390;-2.468;2023-05-10T04:17:33;9.80;99.90
22450;DHT22;11392;57.390;-2.468;2023-05-10T04:20:01;9.70;99.90
22450;DHT22;11392;57.390;-2.468;2023-05-10T04:22:28;9.60;99.90
22450;DHT22;11392;57.390;-2.468;2023-05-10T04:24:55;9.50;99.90
22450;DHT22;11392;57.390;-2.468;2023-05-10T04:27:23;9.50;99.90
22450;DHT22;11392;57.390;-2.468;2023-05-10T04:29:50;9.50;99.90
22450;DHT22;11392;57.390;-2.468;2023-05-10T04:32:17;9.60;99.90
22450;DHT22;11392;57.390;-2.468;2023-05-10T04:34:44;9.60;99.90
22450;DHT22;11392;57.390;-2.468;2023-05-10T04:37:11;9.60;99.90
22450;DHT22;11392;57.390;-2.468;2023-05-10T04:39:38;9.50;99.90
22450;DHT22;11392;57.390;-2.468;2023-05-10T04:42:08;9.60;99.90
22450;DHT22;11392;57.390;-2.468;2023-05-10T04:44:35;9.60;99.90
22450;DHT22;11392;57.390;-2.468;2023-05-10T04:47:03;9.50;99.90
22450;DHT22;11392;57.390;-2.468;2023-05-10T04:49:30;9.50;99.90
22450;DHT22;11392;57.390;-2.468;2023-05-10T04:51:57;9.50;99.90
22450;DHT22;11392;57.390;-2.468;2023-05-10T04:54:24;9.50;99.90
22450;DHT22;11392;57.390;-2.468;2023-05-10T04:56:51;9.60;99.90
22450;DHT22;11392;57.390;-2.468;2023-05-10T04:59:18;9.50;99.90
22450;DHT22;11392;57.390;-2.468;2023-05-10T05:01:45;9.50;99.90
22450;DHT22;11392;57.390;-2.468;2023-05-10T05:04:12;9.50;99.90
22450;DHT22;11392;57.390;-2.468;2023-05-10T05:06:41;9.60;99.90
22450;DHT22;11392;57.390;-2.468;2023-05-10T05:09:09;9.60;99.90
22450;DHT22;11392;57.390;-2.468;2023-05-10T05:11:36;9.60;99.90
22450;DHT22;11392;57.390;-2.468;2023-05-10T05:14:04;9.50;99.90
22450;DHT22;11392;57.390;-2.468;2023-05-10T05:16:31;9.50;99.90
22450;DHT22;11392;57.390;-2.468;2023-05-10T05:18:59;9.50;99.90
22450;DHT22;11392;57.390;-2.468;2023-05-10T05:21:27;9.40;99.90
22450;DHT22;11392;57.390;-2.468;2023-05-10T05:23:55;9.40;99.90
22450;DHT22;11392;57.390;-2.468;2023-05-10T05:26:22;9.50;99.90
22450;DHT22;11392;57.390;-2.468;2023-05-10T05:28:49;9.50;99.90
22450;DHT22;11392;57.390;-2.468;2023-05-10T05:31:19;9.50;99.90
22450;DHT22;11392;57.390;-2.468;2023-05-10T05:33:46;9.60;99.90
22450;DHT22;11392;57.390;-2.468;2023-05-10T05:36:13;9.60;99.90
22450;DHT22;11392;57.390;-2.468;2023-05-10T05:38:40;9.60;99.90
22450;DHT22;11392;57.390;-2.468;2023-05-10T05:41:07;9.60;99.90
22450;DHT22;11392;57.390;-2.468;2023-05-10T05:43:34;9.50;99.90
22450;DHT22;11392;57.390;-2.468;2023-05-10T05:46:04;9.50;99.90
22450;DHT22;11392;57.390;-2.468;2023-05-10T05:48:31;9.60;99.90
22450;DHT22;11392;57.390;-2.468;2023-05-10T05:50:58;9.50;99.90
22450;DHT22;11392;57.390;-2.468;2023-05-10T05:53:26;9.40;99.90
22450;DHT22;11392;57.390;-2.468;2023-05-10T05:55:54;9.40;99.90
22450;DHT22;11392;57.390;-2.468;2023-05-10T05:58:22;9.40;99.90
22450;DHT22;11392;57.390;-2.468;2023-05-10T06:00:49;9.30;99.90
22450;DHT22;11392;57.390;-2.468;2023-05-10T06:03:17;9.30;99.90
22450;DHT22;11392;57.390;-2.468;2023-05-10T06:05:44;9.30;99.90
22450;DHT22;11392;57.390;-2.468;2023-05-10T06:08:11;9.40;99.90
22450;DHT22;11392;57.390;-2.468;2023-05-10T06:10:38;9.40;99.90
22450;DHT22;11392;57.390;-2.468;2023-05-10T06:13:05;9.30;99.90
22450;DHT22;11392;57.390;-2.468;2023-05-10T06:15:32;9.30;99.90
22450;DHT22;11392;57.390;-2.468;2023-05-10T06:18:00;9.30;99.90
22450;DHT22;11392;57.390;-2.468;2023-05-10T06:20:27;9.30;99.90
22450;DHT22;11392;57.390;-2.468;2023-05-10T06:22:54;9.30;99.90
22450;DHT22;11392;57.390;-2.468;2023-05-10T06:25:21;9.30;99.90
22450;DHT22;11392;57.390;-2.468;2023-05-10T06:27:49;9.30;99.90
22450;DHT22;11392;57.390;-2.468;2023-05-10T06:30:19;9.30;99.90
22450;DHT22;11392;57.390;-2.468;2023-05-10T06:32:46;9.30;99.90
22450;DHT22;11392;57.390;-2.468;2023-05-10T06:35:14;9.40;99.90
22450;DHT22;11392;57.390;-2.468;2023-05-10T06:37:41;9.30;99.90
22450;DHT22;11392;57.390;-2.468;2023-05-10T06:40:08;9.40;99.90
22450;DHT22;11392;57.390;-2.468;2023-05-10T06:42:36;9.40;99.90
22450;DHT22;11392;57.390;-2.468;2023-05-10T06:45:03;9.40;99.90
22450;DHT22;11392;57.390;-2.468;2023-05-10T06:47:30;9.40;99.90
22450;DHT22;11392;57.390;-2.468;2023-05-10T06:49:58;9.50;99.90
22450;DHT22;11392;57.390;-2.468;2023-05-10T06:52:25;9.50;99.90
22450;DHT22;11392;57.390;-2.468;2023-05-10T06:54:52;9.50;99.90
22450;DHT22;11392;57.390;-2.468;2023-05-10T06:57:19;9.50;99.90
22450;DHT22;11392;57.390;-2.468;2023-05-10T06:59:58;9.50;99.90
22450;DHT22;11392;57.390;-2.468;2023-05-10T07:02:25;9.60;99.90
22450;DHT22;11392;57.390;-2.468;2023-05-10T07:04:52;9.60;99.90
22450;DHT22;11392;57.390;-2.468;2023-05-10T07:07:19;9.70;99.90
22450;DHT22;11392;57.390;-2.468;2023-05-10T07:09:47;9.60;99.90
22450;DHT22;11392;57.390;-2.468;2023-05-10T07:12:14;9.70;99.90
22450;DHT22;11392;57.390;-2.468;2023-05-10T07:14:42;9.70;99.90
22450;DHT22;11392;57.390;-2.468;2023-05-10T07:17:09;9.70;99.90
22450;DHT22;11392;57.390;-2.468;2023-05-10T07:19:36;9.80;99.90
22450;DHT22;11392;57.390;-2.468;2023-05-10T07:22:03;9.80;99.90
22450;DHT22;11392;57.390;-2.468;2023-05-10T07:24:31;9.90;99.90
22450;DHT22;11392;57.390;-2.468;2023-05-10T07:26:59;10.00;99.90
22450;DHT22;11392;57.390;-2.468;2023-05-10T07:29:26;10.00;99.90
22450;DHT22;11392;57.390;-2.468;2023-05-10T07:31:53;10.10;99.90
22450;DHT22;11392;57.390;-2.468;2023-05-10T07:34:24;10.10;99.90
22450;DHT22;11392;57.390;-2.468;2023-05-10T07:36:52;10.20;99.90
22450;DHT22;11392;57.390;-2.468;2023-05-10T07:39:19;10.10;99.90
22450;DHT22;11392;57.390;-2.468;2023-05-10T07:41:54;10.10;99.90
22450;DHT22;11392;57.390;-2.468;2023-05-10T07:44:22;10.10;99.90
22450;DHT22;11392;57.390;-2.468;2023-05-10T07:46:49;10.10;99.90
22450;DHT22;11392;57.390;-2.468;2023-05-10T07:49:16;10.10;99.90
22450;DHT22;11392;57.390;-2.468;2023-05-10T07:51:43;10.00;99.90
22450;DHT22;11392;57.390;-2.468;2023-05-10T07:54:10;10.00;99.90
22450;DHT22;11392;57.390;-2.468;2023-05-10T07:56:37;10.00;99.90
22450;DHT22;11392;57.390;-2.468;2023-05-10T07:59:05;10.00;99.90
22450;DHT22;11392;57.390;-2.468;2023-05-10T08:01:35;10.20;99.90
22450;DHT22;11392;57.390;-2.468;2023-05-10T08:04:02;10.20;99.90
22450;DHT22;11392;57.390;-2.468;2023-05-10T08:06:29;10.30;99.90
22450;DHT22;11392;57.390;-2.468;2023-05-10T08:08:57;10.30;99.90
22450;DHT22;11392;57.390;-2.468;2023-05-10T08:11:24;10.40;99.90
22450;DHT22;11392;57.390;-2.468;2023-05-10T08:13:51;10.50;99.90
22450;DHT22;11392;57.390;-2.468;2023-05-10T08:16:20;10.40;99.90
22450;DHT22;11392;57.390;-2.468;2023-05-10T08:18:47;10.40;99.90
22450;DHT22;11392;57.390;-2.468;2023-05-10T08:21:15;10.40;99.90
22450;DHT22;11392;57.390;-2.468;2023-05-10T08:23:42;10.50;99.90
22450;DHT22;11392;57.390;-2.468;2023-05-10T08:26:11;10.50;99.90
22450;DHT22;11392;57.390;-2.468;2023-05-10T08:28:38;10.50;99.90
22450;DHT22;11392;57.390;-2.468;2023-05-10T08:31:05;10.50;99.90
22450;DHT22;11392;57.390;-2.468;2023-05-10T08:33:32;10.40;99.90
22450;DHT22;11392;57.390;-2.468;2023-05-10T08:35:59;10.30;99.90
22450;DHT22;11392;57.390;-2.468;2023-05-10T08:38:26;10.40;99.90
22450;DHT22;11392;57.390;-2.468;2023-05-10T08:40:54;10.40;99.90
22450;DHT22;11392;57.390;-2.468;2023-05-10T08:43:29;10.30;99.90
22450;DHT22;11392;57.390;-2.468;2023-05-10T08:45:56;10.30;99.90
22450;DHT22;11392;57.390;-2.468;2023-05-10T08:48:29;10.30;99.90
22450;DHT22;11392;57.390;-2.468;2023-05-10T08:50:58;10.40;99.90
22450;DHT22;11392;57.390;-2.468;2023-05-10T08:53:27;10.40;99.90
22450;DHT22;11392;57.390;-2.468;2023-05-10T08:55:55;10.40;99.90
22450;DHT22;11392;57.390;-2.468;2023-05-10T08:58:22;10.40;99.90
22450;DHT22;11392;57.390;-2.468;2023-05-10T09:00:49;10.40;99.90
22450;DHT22;11392;57.390;-2.468;2023-05-10T09:03:19;10.50;99.90
22450;DHT22;11392;57.390;-2.468;2023-05-10T09:05:48;10.60;99.90
22450;DHT22;11392;57.390;-2.468;2023-05-10T09:08:15;10.60;99.90
22450;DHT22;11392;57.390;-2.468;2023-05-10T09:10:45;10.70;99.90
22450;DHT22;11392;57.390;-2.468;2023-05-10T09:13:17;10.80;99.90
22450;DHT22;11392;57.390;-2.468;2023-05-10T09:15:45;10.90;99.90
22450;DHT22;11392;57.390;-2.468;2023-05-10T09:18:12;11.00;99.90
22450;DHT22;11392;57.390;-2.468;2023-05-10T09:20:40;11.10;99.90
22450;DHT22;11392;57.390;-2.468;2023-05-10T09:23:07;11.30;99.90
22450;DHT22;11392;57.390;-2.468;2023-05-10T09:25:35;11.50;99.90
22450;DHT22;11392;57.390;-2.468;2023-05-10T09:28:02;11.70;99.90
22450;DHT22;11392;57.390;-2.468;2023-05-10T09:30:32;11.80;99.90
22450;DHT22;11392;57.390;-2.468;2023-05-10T09:33:00;11.80;99.90
22450;DHT22;11392;57.390;-2.468;2023-05-10T09:35:29;11.90;99.90
22450;DHT22;11392;57.390;-2.468;2023-05-10T09:38:00;11.70;99.90
22450;DHT22;11392;57.390;-2.468;2023-05-10T09:40:29;11.70;99.90
22450;DHT22;11392;57.390;-2.468;2023-05-10T09:43:07;11.70;99.90
22450;DHT22;11392;57.390;-2.468;2023-05-10T09:45:35;11.90;99.90
22450;DHT22;11392;57.390;-2.468;2023-05-10T09:48:05;11.90;99.90
22450;DHT22;11392;57.390;-2.468;2023-05-10T09:50:32;12.00;99.90
22450;DHT22;11392;57.390;-2.468;2023-05-10T09:53:02;12.10;99.90
22450;DHT22;11392;57.390;-2.468;2023-05-10T09:55:40;12.10;99.90
22450;DHT22;11392;57.390;-2.468;2023-05-10T09:58:07;12.10;99.90
22450;DHT22;11392;57.390;-2.468;2023-05-10T10:00:39;12.10;99.90
22450;DHT22;11392;57.390;-2.468;2023-05-10T10:03:11;12.10;99.90
22450;DHT22;11392;57.390;-2.468;2023-05-10T10:05:40;12.20;99.90
22450;DHT22;11392;57.390;-2.468;2023-05-10T10:08:07;12.30;99.90
22450;DHT22;11392;57.390;-2.468;2023-05-10T10:10:35;12.40;99.90
22450;DHT22;11392;57.390;-2.468;2023-05-10T10:13:02;12.40;99.90
22450;DHT22;11392;57.390;-2.468;2023-05-10T10:15:29;12.50;99.90
22450;DHT22;11392;57.390;-2.468;2023-05-10T10:17:56;12.60;99.90
22450;DHT22;11392;57.390;-2.468;2023-05-10T10:20:23;12.60;99.90
22450;DHT22;11392;57.390;-2.468;2023-05-10T10:22:52;12.60;99.90
22450;DHT22;11392;57.390;-2.468;2023-05-10T10:25:20;12.60;99.90
22450;DHT22;11392;57.390;-2.468;2023-05-10T10:35:46;12.60;99.90
22450;DHT22;11392;57.390;-2.468;2023-05-10T10:38:13;12.60;99.90
22450;DHT22;11392;57.390;-2.468;2023-05-10T10:40:40;12.70;99.90
22450;DHT22;11392;57.390;-2.468;2023-05-10T10:43:37;12.70;99.90
22450;DHT22;11392;57.390;-2.468;2023-05-10T10:46:11;12.90;99.90
22450;DHT22;11392;57.390;-2.468;2023-05-10T10:48:47;13.10;99.90
22450;DHT22;11392;57.390;-2.468;2023-05-10T10:51:15;13.40;99.90
22450;DHT22;11392;57.390;-2.468;2023-05-10T10:53:43;13.50;99.90
22450;DHT22;11392;57.390;-2.468;2023-05-10T10:56:12;13.70;99.90
22450;DHT22;11392;57.390;-2.468;2023-05-10T10:58:49;13.80;99.90
22450;DHT22;11392;57.390;-2.468;2023-05-10T11:01:20;13.90;99.90
22450;DHT22;11392;57.390;-2.468;2023-05-10T11:06:36;14.40;99.90
22450;DHT22;11392;57.390;-2.468;2023-05-10T11:09:11;14.80;99.90
22450;DHT22;11392;57.390;-2.468;2023-05-10T11:11:53;15.20;99.90
22450;DHT22;11392;57.390;-2.468;2023-05-10T11:14:25;15.40;99.90
22450;DHT22;11392;57.390;-2.468;2023-05-10T11:16:52;15.40;99.90
22450;DHT22;11392;57.390;-2.468;2023-05-10T11:19:20;15.40;99.90
22450;DHT22;11392;57.390;-2.468;2023-05-10T11:21:51;15.30;99.90
22450;DHT22;11392;57.390;-2.468;2023-05-10T11:24:38;15.20;99.90
22450;DHT22;11392;57.390;-2.468;2023-05-10T11:27:05;15.50;99.90
22450;DHT22;11392;57.390;-2.468;2023-05-10T11:29:32;15.60;99.90
22450;DHT22;11392;57.390;-2.468;2023-05-10T11:31:59;15.80;99.90
22450;DHT22;11392;57.390;-2.468;2023-05-10T11:34:28;16.00;99.90
22450;DHT22;11392;57.390;-2.468;2023-05-10T11:36:57;16.40;99.90
22450;DHT22;11392;57.390;-2.468;2023-05-10T11:39:28;17.00;99.90
22450;DHT22;11392;57.390;-2.468;2023-05-10T11:41:56;17.20;99.90
22450;DHT22;11392;57.390;-2.468;2023-05-10T11:44:31;17.00;99.90
22450;DHT22;11392;57.390;-2.468;2023-05-10T11:47:00;17.30;99.90
22450;DHT22;11392;57.390;-2.468;2023-05-10T11:49:27;17.40;99.90
22450;DHT22;11392;57.390;-2.468;2023-05-10T11:52:07;17.60;99.90
22450;DHT22;11392;57.390;-2.468;2023-05-10T11:54:34;17.90;99.90
22450;DHT22;11392;57.390;-2.468;2023-05-10T11:57:02;18.20;99.90
22450;DHT22;11392;57.390;-2.468;2023-05-10T11:59:29;18.50;99.90
22450;DHT22;11392;57.390;-2.468;2023-05-10T12:01:56;18.70;99.90
22450;DHT22;11392;57.390;-2.468;2023-05-10T12:04:24;18.80;99.90
22450;DHT22;11392;57.390;-2.468;2023-05-10T12:06:51;18.80;99.90
22450;DHT22;11392;57.390;-2.468;2023-05-10T12:09:18;19.00;99.90
22450;DHT22;11392;57.390;-2.468;2023-05-10T12:12:05;19.10;99.90
22450;DHT22;11392;57.390;-2.468;2023-05-10T12:14:36;19.30;99.90
22450;DHT22;11392;57.390;-2.468;2023-05-10T12:17:03;19.70;99.90
22450;DHT22;11392;57.390;-2.468;2023-05-10T12:19:37;20.00;99.90
22450;DHT22;11392;57.390;-2.468;2023-05-10T12:22:05;20.00;99.90
22450;DHT22;11392;57.390;-2.468;2023-05-10T12:24:36;20.20;99.90
22450;DHT22;11392;57.390;-2.468;2023-05-10T12:27:05;20.00;99.90
22450;DHT22;11392;57.390;-2.468;2023-05-10T12:29:34;19.40;99.90
22450;DHT22;11392;57.390;-2.468;2023-05-10T12:32:02;18.70;99.90
22450;DHT22;11392;57.390;-2.468;2023-05-10T12:34:35;18.10;99.90
22450;DHT22;11392;57.390;-2.468;2023-05-10T12:37:04;18.00;99.90
22450;DHT22;11392;57.390;-2.468;2023-05-10T12:39:43;18.30;99.90
22450;DHT22;11392;57.390;-2.468;2023-05-10T12:42:11;18.60;99.90
22450;DHT22;11392;57.390;-2.468;2023-05-10T12:44:39;18.90;99.90
22450;DHT22;11392;57.390;-2.468;2023-05-10T12:47:06;19.10;99.90
22450;DHT22;11392;57.390;-2.468;2023-05-10T12:49:33;19.30;99.90
22450;DHT22;11392;57.390;-2.468;2023-05-10T12:52:01;19.50;99.90
22450;DHT22;11392;57.390;-2.468;2023-05-10T12:54:28;19.70;99.90
22450;DHT22;11392;57.390;-2.468;2023-05-10T12:56:55;19.60;99.90
22450;DHT22;11392;57.390;-2.468;2023-05-10T12:59:22;19.30;99.90
22450;DHT22;11392;57.390;-2.468;2023-05-10T13:01:49;19.10;99.90
22450;DHT22;11392;57.390;-2.468;2023-05-10T13:04:16;19.00;99.90
22450;DHT22;11392;57.390;-2.468;2023-05-10T13:06:43;18.80;99.90
22450;DHT22;11392;57.390;-2.468;2023-05-10T13:09:10;18.30;99.90
22450;DHT22;11392;57.390;-2.468;2023-05-10T13:11:37;17.60;99.90
22450;DHT22;11392;57.390;-2.468;2023-05-10T13:14:04;17.00;99.90
22450;DHT22;11392;57.390;-2.468;2023-05-10T13:16:31;16.40;99.90
22450;DHT22;11392;57.390;-2.468;2023-05-10T13:18:58;16.20;99.90
22450;DHT22;11392;57.390;-2.468;2023-05-10T13:21:26;16.20;99.90
22450;DHT22;11392;57.390;-2.468;2023-05-10T13:23:53;16.20;99.90
22450;DHT22;11392;57.390;-2.468;2023-05-10T13:26:20;16.30;99.90
22450;DHT22;11392;57.390;-2.468;2023-05-10T13:28:48;16.30;99.90
22450;DHT22;11392;57.390;-2.468;2023-05-10T13:31:16;16.20;99.90
22450;DHT22;11392;57.390;-2.468;2023-05-10T13:33:43;16.10;99.90
22450;DHT22;11392;57.390;-2.468;2023-05-10T13:36:10;15.90;99.90
22450;DHT22;11392;57.390;-2.468;2023-05-10T13:38:37;15.80;99.90
22450;DHT22;11392;57.390;-2.468;2023-05-10T13:41:04;15.60;99.90
22450;DHT22;11392;57.390;-2.468;2023-05-10T13:43:31;15.50;99.90
22450;DHT22;11392;57.390;-2.468;2023-05-10T13:45:58;15.50;99.90
22450;DHT22;11392;57.390;-2.468;2023-05-10T13:48:26;15.50;99.90
22450;DHT22;11392;57.390;-2.468;2023-05-10T13:50:53;15.50;99.90
22450;DHT22;11392;57.390;-2.468;2023-05-10T13:53:20;15.50;99.90
22450;DHT22;11392;57.390;-2.468;2023-05-10T13:55:49;15.70;99.90
22450;DHT22;11392;57.390;-2.468;2023-05-10T13:58:16;15.80;99.90
22450;DHT22;11392;57.390;-2.468;2023-05-10T14:00:43;16.00;99.90
22450;DHT22;11392;57.390;-2.468;2023-05-10T14:03:10;16.10;99.90
22450;DHT22;11392;57.390;-2.468;2023-05-10T14:05:38;16.00;99.90
22450;DHT22;11392;57.390;-2.468;2023-05-10T14:08:05;15.80;99.90
22450;DHT22;11392;57.390;-2.468;2023-05-10T14:10:32;15.70;99.90
22450;DHT22;11392;57.390;-2.468;2023-05-10T14:12:59;15.50;99.90
22450;DHT22;11392;57.390;-2.468;2023-05-10T14:15:26;15.40;99.90
22450;DHT22;11392;57.390;-2.468;2023-05-10T14:17:53;15.40;99.90
22450;DHT22;11392;57.390;-2.468;2023-05-10T14:20:20;15.50;99.90
22450;DHT22;11392;57.390;-2.468;2023-05-10T14:22:47;15.90;99.90
22450;DHT22;11392;57.390;-2.468;2023-05-10T14:25:14;16.30;99.90
22450;DHT22;11392;57.390;-2.468;2023-05-10T14:27:42;16.80;99.90
22450;DHT22;11392;57.390;-2.468;2023-05-10T14:30:10;17.40;99.90
22450;DHT22;11392;57.390;-2.468;2023-05-10T14:32:37;17.60;99.90
22450;DHT22;11392;57.390;-2.468;2023-05-10T14:35:04;17.40;99.90
22450;DHT22;11392;57.390;-2.468;2023-05-10T14:37:32;17.00;99.90
22450;DHT22;11392;57.390;-2.468;2023-05-10T14:40:00;16.60;99.90
22450;DHT22;11392;57.390;-2.468;2023-05-10T14:42:27;16.40;99.90
22450;DHT22;11392;57.390;-2.468;2023-05-10T14:44:55;16.50;99.90
22450;DHT22;11392;57.390;-2.468;2023-05-10T14:47:22;16.80;99.90
22450;DHT22;11392;57.390;-2.468;2023-05-10T14:49:49;17.00;99.90
22450;DHT22;11392;57.390;-2.468;2023-05-10T14:52:17;16.90;99.90
22450;DHT22;11392;57.390;-2.468;2023-05-10T14:54:44;16.90;99.90
22450;DHT22;11392;57.390;-2.468;2023-05-10T14:57:11;16.80;99.90
22450;DHT22;11392;57.390;-2.468;2023-05-10T14:59:39;16.90;99.90
22450;DHT22;11392;57.390;-2.468;2023-05-10T15:02:06;17.00;99.90
22450;DHT22;11392;57.390;-2.468;2023-05-10T15:04:35;17.20;99.90
22450;DHT22;11392;57.390;-2.468;2023-05-10T15:07:03;17.40;99.90
22450;DHT22;11392;57.390;-2.468;2023-05-10T15:09:30;17.60;99.90
22450;DHT22;11392;57.390;-2.468;2023-05-10T15:11:57;17.70;99.90
22450;DHT22;11392;57.390;-2.468;2023-05-10T15:14:24;17.20;99.90
22450;DHT22;11392;57.390;-2.468;2023-05-10T15:16:51;16.80;99.90
22450;DHT22;11392;57.390;-2.468;2023-05-10T15:19:20;16.40;99.90
22450;DHT22;11392;57.390;-2.468;2023-05-10T15:21:47;16.20;99.90
22450;DHT22;11392;57.390;-2.468;2023-05-10T15:24:14;15.80;99.90
22450;DHT22;11392;57.390;-2.468;2023-05-10T15:26:41;15.60;99.90
22450;DHT22;11392;57.390;-2.468;2023-05-10T15:29:08;15.40;99.90
22450;DHT22;11392;57.390;-2.468;2023-05-10T15:31:35;15.20;99.90
22450;DHT22;11392;57.390;-2.468;2023-05-10T15:34:03;15.00;99.90
22450;DHT22;11392;57.390;-2.468;2023-05-10T15:36:31;15.00;99.90
22450;DHT22;11392;57.390;-2.468;2023-05-10T15:38:58;14.80;99.90
22450;DHT22;11392;57.390;-2.468;2023-05-10T15:41:25;14.80;99.90
22450;DHT22;11392;57.390;-2.468;2023-05-10T15:43:53;14.70;99.90
22450;DHT22;11392;57.390;-2.468;2023-05-10T15:46:20;14.70;99.90
22450;DHT22;11392;57.390;-2.468;2023-05-10T15:48:48;14.80;99.90
22450;DHT22;11392;57.390;-2.468;2023-05-10T15:51:15;14.80;99.90
22450;DHT22;11392;57.390;-2.468;2023-05-10T15:53:42;15.00;99.90
22450;DHT22;11392;57.390;-2.468;2023-05-10T15:56:26;15.10;99.90
22450;DHT22;11392;57.390;-2.468;2023-05-10T15:58:53;15.40;99.90
22450;DHT22;11392;57.390;-2.468;2023-05-10T16:01:20;15.70;99.90
22450;DHT22;11392;57.390;-2.468;2023-05-10T16:03:47;15.80;99.90
22450;DHT22;11392;57.390;-2.468;2023-05-10T16:06:14;15.80;99.90